Time;durP1;ratioP1;P1;durP2;ratioP2;P2;SDS_P1;SDS_P2;PMS_P1;PMS_P2;Temp;Humidity;BMP_temperature;BMP_pressure;BME280_temperature;BME280_humidity;BME280_pressure;Samples;Min_cycle;Max_cycle;Signal;HPM_P1;HPM_P2
2021/06/12 00:01:20;;;;;;;;;;;20.70;66.50;;;;;;5031864;28;1078;-66
2021/06/12 00:03:45;;;;;;;;;;;20.70;66.50;;;;;;5031801;28;1071;-66
2021/06/12 00:06:10;;;;;;;;;;;20.80;66.50;;;;;;5030430;28;1076;-66
2021/06/12 00:08:36;;;;;;;;;;;20.70;66.50;;;;;;5031059;28;1131;-65
2021/06/12 00:11:02;;;;;;;;;;;20.70;66.50;;;;;;5031855;28;1219;-65
2021/06/12 00:13:27;;;;;;;;;;;20.70;66.50;;;;;;5029450;28;1060;-66
2021/06/12 00:15:54;;;;;;;;;;;20.70;66.40;;;;;;5032242;28;1963;-65
2021/06/12 00:18:19;;;;;;;;;;;20.70;66.50;;;;;;5031138;28;1123;-65
2021/06/12 00:20:45;;;;;;;;;;;20.70;66.50;;;;;;5031021;28;1308;-66
2021/06/12 00:23:10;;;;;;;;;;;20.80;66.60;;;;;;5031347;28;1064;-65
2021/06/12 00:25:38;;;;;;;;;;;20.70;66.50;;;;;;5030981;28;1141;-66
2021/06/12 00:28:04;;;;;;;;;;;20.80;66.60;;;;;;5030596;28;1112;-65
2021/06/12 00:30:29;;;;;;;;;;;20.70;66.50;;;;;;5031901;28;1284;-66
2021/06/12 00:32:55;;;;;;;;;;;20.70;66.50;;;;;;5029580;28;1076;-65
2021/06/12 00:35:20;;;;;;;;;;;20.70;66.50;;;;;;5031507;28;1922;-66
2021/06/12 00:37:46;;;;;;;;;;;20.80;66.50;;;;;;5031939;28;1135;-66
2021/06/12 00:40:12;;;;;;;;;;;20.70;66.40;;;;;;5032015;28;1339;-66
2021/06/12 00:42:38;;;;;;;;;;;20.70;66.50;;;;;;5031128;28;1147;-65
2021/06/12 00:45:07;;;;;;;;;;;20.70;66.50;;;;;;5013450;28;1285;-66
2021/06/12 00:47:32;;;;;;;;;;;20.70;66.50;;;;;;5031903;28;1127;-66
2021/06/12 00:49:57;;;;;;;;;;;20.70;66.50;;;;;;5031324;28;1278;-66
2021/06/12 00:52:23;;;;;;;;;;;20.80;66.50;;;;;;5031963;28;1142;-66
2021/06/12 00:54:48;;;;;;;;;;;20.70;66.50;;;;;;5030548;28;1898;-66
2021/06/12 00:57:14;;;;;;;;;;;20.70;66.50;;;;;;5031275;28;1064;-66
2021/06/12 00:59:39;;;;;;;;;;;20.70;66.50;;;;;;5032017;28;1382;-66
2021/06/12 01:02:05;;;;;;;;;;;20.80;66.50;;;;;;5033957;28;1123;-66
2021/06/12 01:04:30;;;;;;;;;;;20.70;66.50;;;;;;5034589;28;1055;-66
2021/06/12 01:06:55;;;;;;;;;;;20.70;66.50;;;;;;5035429;28;1095;-65
2021/06/12 01:09:22;;;;;;;;;;;20.70;66.50;;;;;;5035611;28;1359;-66
2021/06/12 01:12:07;;;;;;;;;;;20.80;66.60;;;;;;5034338;28;1127;-65
2021/06/12 01:14:33;;;;;;;;;;;20.70;66.50;;;;;;4998531;28;1898;-66
2021/06/12 01:17:05;;;;;;;;;;;20.70;66.50;;;;;;5024862;28;1069;-66
2021/06/12 01:22:08;;;;;;;;;;;20.70;66.50;;;;;;5050294;28;1963;-73
2021/06/12 01:24:52;;;;;;;;;;;20.70;66.40;;;;;;5053712;28;1409;-72
2021/06/12 01:27:24;;;;;;;;;;;20.70;66.40;;;;;;5055113;28;1027;-73
2021/06/12 01:30:08;;;;;;;;;;;20.70;66.40;;;;;;5055563;28;1326;-72
2021/06/12 01:32:34;;;;;;;;;;;20.70;66.40;;;;;;5055502;28;1105;-73
2021/06/12 01:35:01;;;;;;;;;;;20.80;66.50;;;;;;5036704;28;1963;-72
2021/06/12 01:37:26;;;;;;;;;;;20.70;66.40;;;;;;5055406;28;1260;-72
2021/06/12 01:39:52;;;;;;;;;;;20.70;66.50;;;;;;5053795;28;1305;-73
2021/06/12 01:42:17;;;;;;;;;;;20.70;66.50;;;;;;5053988;28;1526;-72
2021/06/12 01:44:43;;;;;;;;;;;20.70;66.50;;;;;;5052969;28;1182;-72
2021/06/12 01:47:08;;;;;;;;;;;20.70;66.40;;;;;;5054051;28;1247;-73
2021/06/12 01:49:34;;;;;;;;;;;20.70;66.50;;;;;;5054012;28;1335;-72
2021/06/12 01:51:59;;;;;;;;;;;20.70;66.50;;;;;;5053744;28;1316;-72
2021/06/12 01:54:25;;;;;;;;;;;20.70;66.50;;;;;;5052975;28;1965;-72
2021/06/12 01:56:51;;;;;;;;;;;20.70;66.50;;;;;;5020188;28;1230;-72
2021/06/12 01:59:16;;;;;;;;;;;20.80;66.50;;;;;;5047352;28;944;-72
2021/06/12 02:01:44;;;;;;;;;;;20.70;66.50;;;;;;5031796;28;1440;-71
2021/06/12 02:04:10;;;;;;;;;;;20.80;66.50;;;;;;5025456;28;1351;-72
2021/06/12 02:06:35;;;;;;;;;;;20.70;66.50;;;;;;5052507;28;819;-72
2021/06/12 02:09:00;;;;;;;;;;;20.70;66.50;;;;;;5053447;28;1429;-72
2021/06/12 02:11:26;;;;;;;;;;;20.70;66.50;;;;;;5052841;28;1398;-72
2021/06/12 02:13:51;;;;;;;;;;;20.80;66.50;;;;;;5041968;28;1164;-72
2021/06/12 02:16:19;;;;;;;;;;;20.70;67.30;;;;;;5052094;28;1902;-72
2021/06/12 02:18:45;;;;;;;;;;;20.70;66.50;;;;;;5054744;28;1122;-73
2021/06/12 02:21:11;;;;;;;;;;;20.80;66.50;;;;;;5046573;28;1345;-72
2021/06/12 02:23:36;;;;;;;;;;;20.70;66.50;;;;;;5052208;28;1047;-72
2021/06/12 02:26:01;;;;;;;;;;;20.70;66.50;;;;;;5053600;28;1725;-73
2021/06/12 02:28:28;;;;;;;;;;;20.70;66.40;;;;;;5052449;28;918;-73
2021/06/12 02:30:55;;;;;;;;;;;20.80;66.50;;;;;;5049933;28;1263;-73
2021/06/12 02:33:21;;;;;;;;;;;20.70;66.50;;;;;;5045472;28;1334;-73
2021/06/12 02:35:46;;;;;;;;;;;20.80;66.60;;;;;;5043373;28;1984;-73
2021/06/12 02:38:12;;;;;;;;;;;20.80;66.50;;;;;;5028101;28;1204;-73
2021/06/12 02:40:37;;;;;;;;;;;20.70;66.50;;;;;;5045581;28;1255;-75
2021/06/12 02:43:03;;;;;;;;;;;20.70;66.50;;;;;;5042229;28;1235;-76
2021/06/12 02:45:28;;;;;;;;;;;20.80;66.50;;;;;;5026201;28;1276;-74
2021/06/12 02:47:59;;;;;;;;;;;20.70;66.50;;;;;;5044244;28;1345;-73
2021/06/12 02:50:25;;;;;;;;;;;20.70;66.50;;;;;;5044288;28;1443;-75
2021/06/12 02:52:52;;;;;;;;;;;20.70;66.50;;;;;;5045687;28;1224;-75
2021/06/12 02:55:17;;;;;;;;;;;20.70;66.50;;;;;;5043417;28;1918;-74
2021/06/12 02:57:44;;;;;;;;;;;20.70;66.50;;;;;;5041838;28;1204;-74
2021/06/12 03:00:10;;;;;;;;;;;20.70;66.50;;;;;;5044955;28;1279;-73
2021/06/12 03:02:36;;;;;;;;;;;20.70;66.50;;;;;;5045532;28;1211;-74
2021/06/12 03:05:01;;;;;;;;;;;20.70;66.50;;;;;;5053047;28;823;-74
2021/06/12 03:07:27;;;;;;;;;;;20.70;66.50;;;;;;5053112;28;772;-74
2021/06/12 03:09:52;;;;;;;;;;;20.70;66.50;;;;;;5052905;28;1361;-73
2021/06/12 03:12:18;;;;;;;;;;;20.70;66.50;;;;;;5053163;28;725;-73
2021/06/12 03:14:43;;;;;;;;;;;20.70;66.50;;;;;;5052377;28;1959;-74
2021/06/12 03:17:08;;;;;;;;;;;20.70;66.50;;;;;;5053144;28;792;-74
2021/06/12 03:19:34;;;;;;;;;;;20.70;66.50;;;;;;5052738;28;1341;-74
2021/06/12 03:21:59;;;;;;;;;;;20.70;66.60;;;;;;5052185;28;906;-74
2021/06/12 03:24:25;;;;;;;;;;;20.70;66.60;;;;;;5052281;28;1139;-74
2021/06/12 03:26:50;;;;;;;;;;;20.70;66.60;;;;;;5053699;28;875;-74
2021/06/12 03:29:16;;;;;;;;;;;20.70;66.60;;;;;;5032545;28;935;-74
2021/06/12 03:31:41;;;;;;;;;;;20.70;66.60;;;;;;5045010;28;1225;-73
2021/06/12 03:34:06;;;;;;;;;;;20.70;66.60;;;;;;5051762;28;1465;-73
2021/06/12 03:36:32;;;;;;;;;;;20.70;66.60;;;;;;5053291;28;1894;-73
2021/06/12 03:38:57;;;;;;;;;;;20.70;66.60;;;;;;5038856;28;1213;-72
2021/06/12 03:41:23;;;;;;;;;;;20.70;66.60;;;;;;5052241;28;1322;-74
2021/06/12 03:43:48;;;;;;;;;;;20.70;66.60;;;;;;5051186;28;1446;-74
2021/06/12 03:46:14;;;;;;;;;;;20.70;66.60;;;;;;5052239;28;1163;-74
2021/06/12 03:48:40;;;;;;;;;;;20.70;66.60;;;;;;5051980;28;1510;-74
2021/06/12 03:51:06;;;;;;;;;;;20.70;66.60;;;;;;5051930;28;1476;-73
2021/06/12 03:53:31;;;;;;;;;;;20.70;66.60;;;;;;5053124;28;784;-74
2021/06/12 03:55:59;;;;;;;;;;;20.70;66.60;;;;;;5052091;28;1960;-73
2021/06/12 03:58:25;;;;;;;;;;;20.70;66.60;;;;;;5052107;28;860;-73
2021/06/12 04:00:50;;;;;;;;;;;20.70;66.60;;;;;;5053237;28;1405;-75
2021/06/12 04:03:16;;;;;;;;;;;20.70;66.60;;;;;;5051202;28;1226;-73
2021/06/12 04:05:41;;;;;;;;;;;20.70;66.70;;;;;;5051889;28;1048;-73
2021/06/12 04:08:07;;;;;;;;;;;20.70;66.60;;;;;;5051677;28;1256;-73
2021/06/12 04:10:32;;;;;;;;;;;20.70;66.60;;;;;;5040259;28;1459;-73
2021/06/12 04:12:57;;;;;;;;;;;20.70;66.70;;;;;;5050744;28;1057;-73
2021/06/12 04:15:23;;;;;;;;;;;20.70;66.70;;;;;;5041929;28;1894;-73
2021/06/12 04:17:57;;;;;;;;;;;20.70;66.60;;;;;;5049558;28;798;-73
2021/06/12 04:20:23;;;;;;;;;;;20.70;66.60;;;;;;5051742;28;1388;-73
2021/06/12 04:22:48;;;;;;;;;;;20.70;66.70;;;;;;5039499;28;1458;-74
2021/06/12 04:25:13;;;;;;;;;;;20.70;66.60;;;;;;5052715;28;1442;-74
2021/06/12 04:27:39;;;;;;;;;;;20.70;66.60;;;;;;5052449;28;848;-72
2021/06/12 04:30:05;;;;;;;;;;;20.70;66.60;;;;;;5052611;28;1377;-72
2021/06/12 04:32:30;;;;;;;;;;;20.70;66.70;;;;;;5051436;28;1490;-73
2021/06/12 04:34:55;;;;;;;;;;;20.70;66.70;;;;;;5050734;28;1902;-74
2021/06/12 04:37:21;;;;;;;;;;;20.70;66.60;;;;;;5051613;28;1061;-73
2021/06/12 04:39:46;;;;;;;;;;;20.70;66.70;;;;;;5052890;28;1258;-73
2021/06/12 04:42:13;;;;;;;;;;;20.70;66.70;;;;;;5051622;28;1127;-73
2021/06/12 04:44:38;;;;;;;;;;;20.70;66.70;;;;;;5052597;28;839;-73
2021/06/12 04:47:04;;;;;;;;;;;20.70;66.70;;;;;;5051607;28;848;-73
2021/06/12 04:49:29;;;;;;;;;;;20.70;66.70;;;;;;5050773;28;1449;-73
2021/06/12 04:51:55;;;;;;;;;;;20.70;66.70;;;;;;5052156;28;1173;-73
2021/06/12 04:54:20;;;;;;;;;;;20.70;66.70;;;;;;5051067;28;972;-74
2021/06/12 04:56:46;;;;;;;;;;;20.70;66.70;;;;;;5052477;28;1955;-73
2021/06/12 04:59:11;;;;;;;;;;;20.70;66.70;;;;;;5053016;28;780;-73
2021/06/12 05:01:37;;;;;;;;;;;20.70;66.60;;;;;;5052493;28;1266;-74
2021/06/12 05:04:02;;;;;;;;;;;20.70;66.70;;;;;;5051991;28;791;-74
2021/06/12 05:06:28;;;;;;;;;;;20.80;66.80;;;;;;5052733;28;767;-74
2021/06/12 05:08:53;;;;;;;;;;;20.70;66.80;;;;;;5052533;28;780;-74
2021/06/12 05:11:19;;;;;;;;;;;20.70;66.80;;;;;;5036522;28;1983;-69
2021/06/12 05:13:44;;;;;;;;;;;20.70;66.80;;;;;;5053366;28;1186;-69
2021/06/12 05:16:09;;;;;;;;;;;20.70;66.80;;;;;;5061368;28;1922;-69
2021/06/12 05:18:44;;;;;;;;;;;20.70;66.80;;;;;;5051040;28;1442;-71
2021/06/12 05:21:09;;;;;;;;;;;20.70;66.90;;;;;;5051107;28;1303;-70
2021/06/12 05:23:34;;;;;;;;;;;20.80;66.90;;;;;;5050405;28;1354;-71
2021/06/12 05:26:00;;;;;;;;;;;20.70;66.80;;;;;;5029567;28;1400;-70
2021/06/12 05:28:26;;;;;;;;;;;20.80;66.90;;;;;;5041312;28;1573;-70
2021/06/12 05:30:51;;;;;;;;;;;20.70;66.80;;;;;;5051031;28;1352;-71
2021/06/12 05:33:17;;;;;;;;;;;20.70;66.80;;;;;;5050300;28;1695;-70
2021/06/12 05:35:45;;;;;;;;;;;20.70;66.80;;;;;;5050032;28;1914;-69
2021/06/12 05:38:11;;;;;;;;;;;20.70;66.80;;;;;;5049441;28;1611;-69
2021/06/12 05:40:36;;;;;;;;;;;20.70;66.80;;;;;;5048828;28;1670;-69
2021/06/12 05:43:02;;;;;;;;;;;20.70;66.80;;;;;;5050392;28;1675;-70
2021/06/12 05:45:27;;;;;;;;;;;20.70;66.80;;;;;;5051612;28;1595;-70
2021/06/12 05:47:52;;;;;;;;;;;20.70;66.80;;;;;;5053480;28;1392;-70
2021/06/12 05:50:18;;;;;;;;;;;20.70;66.90;;;;;;5054192;28;1708;-69
2021/06/12 05:52:43;;;;;;;;;;;20.70;66.90;;;;;;5054629;28;1378;-69
2021/06/12 05:55:09;;;;;;;;;;;20.70;66.90;;;;;;5053735;28;1965;-70
2021/06/12 05:57:34;;;;;;;;;;;20.70;66.90;;;;;;5053600;28;761;-71
2021/06/12 06:00:00;;;;;;;;;;;20.70;66.90;;;;;;5054433;28;1408;-71
2021/06/12 06:02:25;;;;;;;;;;;20.70;66.90;;;;;;5053088;28;1679;-71
2021/06/12 06:04:51;;;;;;;;;;;20.70;66.80;;;;;;5053690;28;1364;-71
2021/06/12 06:07:17;;;;;;;;;;;20.70;66.90;;;;;;5054062;28;1403;-72
2021/06/12 06:09:43;;;;;;;;;;;20.70;66.80;;;;;;5054398;28;1704;-70
2021/06/12 06:12:08;;;;;;;;;;;20.80;66.90;;;;;;5054240;28;1113;-71
2021/06/12 06:14:34;;;;;;;;;;;20.70;66.90;;;;;;5054992;28;1969;-69
2021/06/12 06:16:59;;;;;;;;;;;20.70;66.90;;;;;;5054843;28;1434;-74
2021/06/12 06:19:25;;;;;;;;;;;20.70;66.90;;;;;;5052890;28;1687;-75
2021/06/12 06:21:50;;;;;;;;;;;20.70;66.90;;;;;;5065670;28;1348;-71
2021/06/12 06:24:15;;;;;;;;;;;20.70;66.90;;;;;;5056452;28;1287;-71
2021/06/12 06:26:41;;;;;;;;;;;20.70;66.90;;;;;;5054624;28;1037;-72
2021/06/12 06:29:06;;;;;;;;;;;20.70;66.90;;;;;;5053535;28;1229;-72
2021/06/12 06:31:32;;;;;;;;;;;20.70;66.90;;;;;;5054493;28;1220;-72
2021/06/12 06:33:57;;;;;;;;;;;20.70;67.00;;;;;;5050391;28;1478;-72
2021/06/12 06:36:23;;;;;;;;;;;20.70;67.00;;;;;;5044817;28;1906;-72
2021/06/12 06:38:48;;;;;;;;;;;20.70;66.90;;;;;;5054419;28;831;-72
2021/06/12 06:41:14;;;;;;;;;;;20.70;67.00;;;;;;5054632;28;1269;-72
2021/06/12 06:43:39;;;;;;;;;;;20.70;67.00;;;;;;5053324;28;1384;-70
2021/06/12 06:46:04;;;;;;;;;;;20.70;67.00;;;;;;5053891;28;1051;-72
2021/06/12 06:48:30;;;;;;;;;;;20.70;67.00;;;;;;5054065;28;1114;-71
2021/06/12 06:50:56;;;;;;;;;;;20.70;67.00;;;;;;5054032;28;1388;-71
2021/06/12 06:53:21;;;;;;;;;;;20.70;67.00;;;;;;5053483;28;1714;-71
2021/06/12 06:55:47;;;;;;;;;;;20.70;67.00;;;;;;5054313;28;1902;-71
2021/06/12 06:58:12;;;;;;;;;;;20.70;67.00;;;;;;5053120;28;1193;-71
2021/06/12 07:00:38;;;;;;;;;;;20.70;67.00;;;;;;5053698;28;1421;-72
2021/06/12 07:03:03;;;;;;;;;;;20.70;67.00;;;;;;5053224;28;1385;-71
2021/06/12 07:05:29;;;;;;;;;;;20.70;67.00;;;;;;5054030;28;1383;-71
2021/06/12 07:07:54;;;;;;;;;;;20.70;67.00;;;;;;5053817;28;1393;-72
2021/06/12 07:10:20;;;;;;;;;;;20.70;67.00;;;;;;5053543;28;1254;-71
2021/06/12 07:12:45;;;;;;;;;;;20.70;67.00;;;;;;5053530;28;1436;-74
2021/06/12 07:15:11;;;;;;;;;;;20.70;67.00;;;;;;5042073;28;1894;-74
2021/06/12 07:17:36;;;;;;;;;;;20.70;67.00;;;;;;5049772;28;1739;-74
2021/06/12 07:22:40;;;;;;;;;;;20.70;67.00;;;;;;5027822;28;3052;-65
2021/06/12 07:25:05;;;;;;;;;;;20.70;67.00;;;;;;5033176;28;874;-66
2021/06/12 07:27:31;;;;;;;;;;;20.70;67.00;;;;;;5033553;28;1462;-65
2021/06/12 07:29:56;;;;;;;;;;;20.70;67.00;;;;;;5033377;28;1659;-65
2021/06/12 07:32:22;;;;;;;;;;;20.70;67.00;;;;;;5014215;28;1452;-65
2021/06/12 07:34:47;;;;;;;;;;;20.70;67.00;;;;;;5013250;28;1968;-65
2021/06/12 07:37:12;;;;;;;;;;;20.70;67.00;;;;;;5013599;28;1223;-67
2021/06/12 07:39:38;;;;;;;;;;;20.70;67.00;;;;;;5008583;28;1089;-66
2021/06/12 07:42:03;;;;;;;;;;;20.70;67.00;;;;;;5013184;28;1386;-66
2021/06/12 07:44:29;;;;;;;;;;;20.70;67.00;;;;;;5012921;28;1377;-66
2021/06/12 07:46:54;;;;;;;;;;;20.70;67.00;;;;;;5013293;28;1587;-66
2021/06/12 07:49:20;;;;;;;;;;;20.70;67.00;;;;;;5013407;28;1817;-69
2021/06/12 07:51:45;;;;;;;;;;;20.70;67.00;;;;;;5013326;28;1656;-66
2021/06/12 07:54:11;;;;;;;;;;;20.70;67.00;;;;;;5012635;28;1428;-66
2021/06/12 07:56:36;;;;;;;;;;;20.70;67.00;;;;;;5013051;28;1894;-70
2021/06/12 07:59:01;;;;;;;;;;;20.70;67.00;;;;;;5011699;28;1473;-67
2021/06/12 08:01:27;;;;;;;;;;;20.70;67.00;;;;;;5011884;28;1733;-66
2021/06/12 08:03:52;;;;;;;;;;;20.70;67.00;;;;;;5012347;28;1678;-69
2021/06/12 08:06:18;;;;;;;;;;;20.70;67.00;;;;;;5013235;28;1414;-65
2021/06/12 08:08:43;;;;;;;;;;;20.70;67.00;;;;;;5012793;28;1628;-67
2021/06/12 08:11:09;;;;;;;;;;;20.70;67.00;;;;;;5013162;28;1396;-67
2021/06/12 08:13:34;;;;;;;;;;;20.70;67.00;;;;;;5011961;28;1606;-67
2021/06/12 08:16:00;;;;;;;;;;;20.70;67.00;;;;;;5012894;28;1898;-67
2021/06/12 08:18:25;;;;;;;;;;;20.70;67.00;;;;;;5012147;28;1579;-68
2021/06/12 08:20:50;;;;;;;;;;;20.70;67.00;;;;;;5012799;28;1362;-67
2021/06/12 08:23:16;;;;;;;;;;;20.70;67.00;;;;;;5012327;28;859;-66
2021/06/12 08:25:41;;;;;;;;;;;20.70;67.00;;;;;;5012755;28;1657;-67
2021/06/12 08:28:07;;;;;;;;;;;20.70;67.00;;;;;;5012914;28;989;-67
2021/06/12 08:30:36;;;;;;;;;;;20.70;67.00;;;;;;5012479;28;1681;-66
2021/06/12 08:33:02;;;;;;;;;;;20.70;67.00;;;;;;5012094;28;1542;-66
2021/06/12 08:35:28;;;;;;;;;;;20.70;67.10;;;;;;5012650;28;1965;-69
2021/06/12 08:37:53;;;;;;;;;;;20.70;67.10;;;;;;5012911;28;1689;-66
2021/06/12 08:40:19;;;;;;;;;;;20.70;67.10;;;;;;5011963;28;1684;-66
2021/06/12 08:42:47;;;;;;;;;;;20.70;67.10;;;;;;5012146;28;1372;-66
2021/06/12 08:45:13;;;;;;;;;;;20.70;67.10;;;;;;5012480;28;1635;-66
2021/06/12 08:47:39;;;;;;;;;;;20.70;67.10;;;;;;5012713;28;1654;-67
2021/06/12 08:50:04;;;;;;;;;;;20.70;67.10;;;;;;5011480;28;1417;-68
2021/06/12 08:52:30;;;;;;;;;;;20.70;67.10;;;;;;5011022;28;1379;-66
2021/06/12 08:54:55;;;;;;;;;;;20.70;67.10;;;;;;5010706;28;1948;-65
2021/06/12 08:57:21;;;;;;;;;;;20.70;67.10;;;;;;5012531;28;1329;-68
2021/06/12 08:59:46;;;;;;;;;;;20.70;67.10;;;;;;5011564;28;1699;-66
2021/06/12 09:02:12;;;;;;;;;;;20.80;67.20;;;;;;5000053;28;1271;-66
2021/06/12 09:04:43;;;;;;;;;;;20.70;67.10;;;;;;5004918;28;1275;-66
2021/06/12 09:07:21;;;;;;;;;;;20.70;67.10;;;;;;5006729;28;1263;-65
2021/06/12 09:09:47;;;;;;;;;;;20.70;67.00;;;;;;5004681;28;1170;-65
2021/06/12 09:12:13;;;;;;;;;;;20.70;67.00;;;;;;5008307;28;1249;-67
2021/06/12 09:14:38;;;;;;;;;;;20.70;67.10;;;;;;5005661;28;1960;-66
2021/06/12 09:17:04;;;;;;;;;;;20.70;67.10;;;;;;5003936;28;1060;-65
2021/06/12 09:19:29;;;;;;;;;;;20.70;67.10;;;;;;5011082;28;1119;-66
2021/06/12 09:21:58;;;;;;;;;;;20.70;67.10;;;;;;5007693;28;1412;-66
2021/06/12 09:24:27;;;;;;;;;;;20.70;67.10;;;;;;5015118;28;1101;-66
2021/06/12 09:26:53;;;;;;;;;;;20.70;67.10;;;;;;5015575;28;1127;-65
2021/06/12 09:29:19;;;;;;;;;;;20.70;67.10;;;;;;5014221;28;1072;-65
2021/06/12 09:31:48;;;;;;;;;;;20.70;67.10;;;;;;5010362;28;1198;-66
2021/06/12 09:34:14;;;;;;;;;;;20.70;67.10;;;;;;5011347;28;1283;-66
2021/06/12 09:36:40;;;;;;;;;;;20.70;67.10;;;;;;5010349;28;1968;-66
2021/06/12 09:39:06;;;;;;;;;;;20.70;67.10;;;;;;5015085;28;1179;-65
2021/06/12 09:41:32;;;;;;;;;;;20.70;67.10;;;;;;5001808;28;1271;-65
2021/06/12 09:43:58;;;;;;;;;;;20.70;67.10;;;;;;5014176;28;1226;-66
2021/06/12 09:46:30;;;;;;;;;;;20.70;67.10;;;;;;5013284;28;1098;-65
2021/06/12 09:48:55;;;;;;;;;;;20.70;67.00;;;;;;5006050;28;1509;-65
2021/06/12 09:51:21;;;;;;;;;;;20.80;67.10;;;;;;5013668;28;1315;-66
2021/06/12 09:53:50;;;;;;;;;;;20.70;67.10;;;;;;5013739;28;1525;-67
2021/06/12 09:56:15;;;;;;;;;;;20.70;67.10;;;;;;5010816;28;1973;-65
2021/06/12 09:58:41;;;;;;;;;;;20.70;67.00;;;;;;5006832;28;1271;-66
2021/06/12 10:01:10;;;;;;;;;;;20.70;67.10;;;;;;5014398;28;1259;-65
2021/06/12 10:03:35;;;;;;;;;;;20.70;67.00;;;;;;5014367;28;1119;-66
2021/06/12 10:06:14;;;;;;;;;;;20.70;67.00;;;;;;5014941;28;1139;-66
2021/06/12 10:08:46;;;;;;;;;;;20.70;67.10;;;;;;5013635;28;1174;-65
2021/06/12 10:11:12;;;;;;;;;;;20.70;67.10;;;;;;5015142;28;1241;-66
2021/06/12 10:13:38;;;;;;;;;;;20.70;67.10;;;;;;5014499;28;1088;-66
2021/06/12 10:16:03;;;;;;;;;;;20.70;67.10;;;;;;5000410;28;1961;-67
2021/06/12 10:18:29;;;;;;;;;;;20.70;67.10;;;;;;5013025;28;1150;-66
2021/06/12 10:20:54;;;;;;;;;;;20.70;67.10;;;;;;4990776;28;1311;-65
2021/06/12 10:23:20;;;;;;;;;;;20.70;67.10;;;;;;5009194;28;1176;-66
2021/06/12 10:25:45;;;;;;;;;;;20.70;67.10;;;;;;5009239;28;1151;-65
2021/06/12 10:28:11;;;;;;;;;;;20.70;67.00;;;;;;5013511;28;1119;-66
2021/06/12 10:30:36;;;;;;;;;;;20.70;67.10;;;;;;5013277;28;1312;-66
2021/06/12 10:33:02;;;;;;;;;;;20.70;67.10;;;;;;5012917;28;1151;-66
2021/06/12 10:35:28;;;;;;;;;;;20.70;67.10;;;;;;5013512;28;1914;-65
2021/06/12 10:37:53;;;;;;;;;;;20.80;67.10;;;;;;5013571;28;1059;-65
2021/06/12 10:40:19;;;;;;;;;;;20.80;67.20;;;;;;5014784;28;1245;-65
2021/06/12 10:42:56;;;;;;;;;;;20.70;67.10;;;;;;5012885;28;1318;-67
2021/06/12 10:45:21;;;;;;;;;;;20.70;67.10;;;;;;5006564;28;1173;-66
2021/06/12 10:47:49;;;;;;;;;;;20.70;67.80;;;;;;5012961;28;1269;-67
2021/06/12 10:50:29;;;;;;;;;;;20.70;67.10;;;;;;5012010;28;1424;-66
2021/06/12 10:52:55;;;;;;;;;;;20.80;67.20;;;;;;5013268;28;1398;-67
2021/06/12 10:55:39;;;;;;;;;;;20.70;67.10;;;;;;4995772;28;1902;-67
2021/06/12 10:58:23;;;;;;;;;;;20.70;67.10;;;;;;5012146;28;1285;-68
2021/06/12 11:01:16;;;;;;;;;;;20.70;67.10;;;;;;5012725;28;1305;-66
2021/06/12 11:03:42;;;;;;;;;;;20.70;67.10;;;;;;5011123;28;1326;-67
2021/06/12 11:06:30;;;;;;;;;;;20.70;67.10;;;;;;5013566;28;1305;-69
2021/06/12 11:09:23;;;;;;;;;;;20.70;67.10;;;;;;5008089;28;1182;-68
2021/06/12 11:11:50;;;;;;;;;;;20.70;67.10;;;;;;5012578;28;1366;-68
2021/06/12 11:14:24;;;;;;;;;;;20.70;67.10;;;;;;5006215;28;1271;-66
2021/06/12 11:17:09;;;;;;;;;;;20.80;67.10;;;;;;5009865;28;1941;-68
2021/06/12 11:19:42;;;;;;;;;;;20.70;67.10;;;;;;5013193;28;1050;-67
2021/06/12 11:22:26;;;;;;;;;;;20.80;67.10;;;;;;5010404;28;1355;-66
2021/06/12 11:24:56;;;;;;;;;;;20.70;67.10;;;;;;5002102;28;1131;-66
2021/06/12 11:27:23;;;;;;;;;;;20.80;67.10;;;;;;5012147;28;1131;-66
2021/06/12 11:30:07;;;;;;;;;;;20.70;67.10;;;;;;5013345;28;1048;-67
2021/06/12 11:32:32;;;;;;;;;;;20.70;67.10;;;;;;5011503;28;1551;-67
2021/06/12 11:34:57;;;;;;;;;;;20.80;67.10;;;;;;5012143;28;1898;-67
2021/06/12 11:37:24;;;;;;;;;;;20.70;67.10;;;;;;5012112;28;1178;-66
2021/06/12 11:39:51;;;;;;;;;;;20.80;67.10;;;;;;5013320;28;1126;-66
2021/06/12 11:42:16;;;;;;;;;;;20.70;67.10;;;;;;5012767;28;1363;-66
2021/06/12 11:44:42;;;;;;;;;;;20.70;67.10;;;;;;5012378;28;1064;-66
2021/06/12 11:47:07;;;;;;;;;;;20.70;67.10;;;;;;5011822;28;1112;-66
2021/06/12 11:49:32;;;;;;;;;;;20.70;67.00;;;;;;5013087;28;1075;-66
2021/06/12 11:51:58;;;;;;;;;;;20.70;67.10;;;;;;5013039;28;1400;-66
2021/06/12 11:54:31;;;;;;;;;;;20.70;67.00;;;;;;5012423;28;1127;-67
2021/06/12 11:56:58;;;;;;;;;;;20.80;67.10;;;;;;5011462;28;1895;-66
2021/06/12 11:59:25;;;;;;;;;;;20.70;67.00;;;;;;5013207;28;1162;-67
2021/06/12 12:01:58;;;;;;;;;;;20.80;67.20;;;;;;5011507;28;1346;-66
2021/06/12 12:04:24;;;;;;;;;;;20.70;67.10;;;;;;5011060;28;1063;-67
2021/06/12 12:06:58;;;;;;;;;;;20.80;67.10;;;;;;5012446;28;1198;-70
2021/06/12 12:09:25;;;;;;;;;;;20.70;67.00;;;;;;5011604;28;1091;-67
2021/06/12 12:11:51;;;;;;;;;;;20.80;67.10;;;;;;5011793;28;1272;-66
2021/06/12 12:14:16;;;;;;;;;;;20.70;67.10;;;;;;5009918;28;1110;-67
2021/06/12 12:16:44;;;;;;;;;;;20.70;67.10;;;;;;5001295;28;1914;-66
2021/06/12 12:19:10;;;;;;;;;;;20.70;67.10;;;;;;5012338;28;1013;-68
2021/06/12 12:21:39;;;;;;;;;;;20.70;67.10;;;;;;5011470;28;1804;-66
2021/06/12 12:24:05;;;;;;;;;;;20.70;67.10;;;;;;5012185;28;1482;-67
2021/06/12 12:26:31;;;;;;;;;;;20.80;67.20;;;;;;5012900;28;1373;-66
2021/06/12 12:29:00;;;;;;;;;;;20.70;67.10;;;;;;5012643;28;1693;-66
2021/06/12 12:31:26;;;;;;;;;;;20.70;67.10;;;;;;5011832;28;1563;-66
2021/06/12 12:33:52;;;;;;;;;;;20.80;67.30;;;;;;5011856;28;1013;-66
2021/06/12 12:36:18;;;;;;;;;;;20.70;67.30;;;;;;5012570;28;1910;-66
2021/06/12 12:38:43;;;;;;;;;;;20.80;67.40;;;;;;5012508;28;1096;-67
2021/06/12 12:41:09;;;;;;;;;;;20.80;67.30;;;;;;5011193;28;1258;-67
2021/06/12 12:43:35;;;;;;;;;;;20.80;67.30;;;;;;5010187;28;1083;-67
2021/06/12 12:46:03;;;;;;;;;;;20.80;67.40;;;;;;5012407;28;1084;-69
2021/06/12 12:48:29;;;;;;;;;;;20.80;67.40;;;;;;5010952;28;1048;-67
2021/06/12 12:50:54;;;;;;;;;;;20.80;67.40;;;;;;5012116;28;1279;-66
2021/06/12 12:53:20;;;;;;;;;;;20.80;67.50;;;;;;5011320;28;1084;-67
2021/06/12 12:55:58;;;;;;;;;;;20.80;67.50;;;;;;5015986;28;1898;-66
2021/06/12 12:58:27;;;;;;;;;;;20.80;67.40;;;;;;5014813;28;1104;-67
2021/06/12 13:01:08;;;;;;;;;;;20.80;67.40;;;;;;5014895;28;1283;-67
2021/06/12 13:03:43;;;;;;;;;;;20.80;67.40;;;;;;5015542;28;1056;-67
2021/06/12 13:06:27;;;;;;;;;;;20.80;67.30;;;;;;5016412;28;1127;-66
2021/06/12 13:09:19;;;;;;;;;;;20.80;67.20;;;;;;5015761;28;1044;-66
2021/06/12 13:11:46;;;;;;;;;;;20.80;67.40;;;;;;5013844;28;1288;-66
2021/06/12 13:14:28;;;;;;;;;;;20.80;67.40;;;;;;5014289;28;1124;-66
2021/06/12 13:16:56;;;;;;;;;;;20.80;67.40;;;;;;5015535;28;1979;-66
2021/06/12 13:19:28;;;;;;;;;;;20.80;67.30;;;;;;5015868;28;1142;-67
2021/06/12 13:21:53;;;;;;;;;;;20.80;67.30;;;;;;5051160;23;2274;-74
2021/06/12 13:24:19;;;;;;;;;;;20.80;67.30;;;;;;5047262;28;854;-74
2021/06/12 13:26:44;;;;;;;;;;;20.80;67.30;;;;;;5048561;28;1473;-74
2021/06/12 13:29:23;;;;;;;;;;;20.80;67.30;;;;;;5054834;28;1376;-74
2021/06/12 13:31:48;;;;;;;;;;;20.80;67.40;;;;;;5043524;28;1284;-75
2021/06/12 13:34:30;;;;;;;;;;;20.80;67.40;;;;;;5034762;28;1366;-75
2021/06/12 13:36:57;;;;;;;;;;;20.80;67.40;;;;;;5034824;28;1981;-74
2021/06/12 13:39:30;;;;;;;;;;;20.80;67.30;;;;;;5034816;28;1365;-74
2021/06/12 13:42:09;;;;;;;;;;;20.80;67.30;;;;;;5018376;28;1277;-74
2021/06/12 13:44:34;;;;;;;;;;;20.80;67.30;;;;;;5034349;28;831;-74
2021/06/12 13:47:00;;;;;;;;;;;20.80;67.30;;;;;;5036015;28;1694;-74
2021/06/12 13:49:25;;;;;;;;;;;20.80;67.20;;;;;;5034596;28;1037;-74
2021/06/12 13:51:51;;;;;;;;;;;20.80;67.30;;;;;;5035944;28;1282;-74
2021/06/12 13:54:16;;;;;;;;;;;20.80;67.30;;;;;;5035595;28;1360;-74
2021/06/12 13:56:42;;;;;;;;;;;20.80;67.20;;;;;;5035887;28;1965;-74
2021/06/12 13:59:07;;;;;;;;;;;20.80;67.20;;;;;;5034556;28;1376;-74
2021/06/12 14:01:33;;;;;;;;;;;20.80;67.30;;;;;;5033982;28;1654;-74
2021/06/12 14:04:00;;;;;;;;;;;20.80;67.20;;;;;;5035192;28;1630;-75
2021/06/12 14:06:26;;;;;;;;;;;20.80;67.30;;;;;;5033797;28;1187;-74
2021/06/12 14:08:51;;;;;;;;;;;20.80;67.20;;;;;;5035501;28;1182;-74
2021/06/12 14:11:16;;;;;;;;;;;20.80;67.20;;;;;;5034424;28;1690;-74
2021/06/12 14:13:42;;;;;;;;;;;20.80;67.20;;;;;;5034035;28;984;-74
2021/06/12 14:16:07;;;;;;;;;;;20.80;67.20;;;;;;5035114;28;1906;-74
2021/06/12 14:18:34;;;;;;;;;;;20.80;67.30;;;;;;5034047;28;1180;-74
2021/06/12 14:20:59;;;;;;;;;;;20.80;67.30;;;;;;5029555;28;1716;-74
2021/06/12 14:23:25;;;;;;;;;;;20.80;67.30;;;;;;5026482;28;1132;-74
2021/06/12 14:25:51;;;;;;;;;;;20.80;67.30;;;;;;5030128;28;1196;-74
2021/06/12 14:28:18;;;;;;;;;;;20.80;67.20;;;;;;5034120;28;1086;-76
2021/06/12 14:30:43;;;;;;;;;;;20.80;67.30;;;;;;5034890;28;1377;-74
2021/06/12 14:33:09;;;;;;;;;;;20.80;67.30;;;;;;5033582;28;1170;-74
2021/06/12 14:35:35;;;;;;;;;;;20.80;67.30;;;;;;5027437;28;1906;-74